createdAt,value
2023-11-01T00:00:44.804Z,99399.31
2023-11-01T00:03:14.121Z,99401.06
2023-11-01T00:05:41.662Z,99401.23
2023-11-01T00:08:09.022Z,99392.68
2023-11-01T00:10:36.311Z,99386.02
2023-11-01T00:13:03.592Z,99384.27
2023-11-01T00:15:30.804Z,99384.33
2023-11-01T00:17:58.150Z,99392.04
2023-11-01T00:20:25.452Z,99388.28
2023-11-01T00:22:52.632Z,99390.19
2023-11-01T00:25:19.985Z,99394.99
2023-11-01T00:27:47.264Z,99387.35
2023-11-01T00:30:14.974Z,99383.14
2023-11-01T00:32:42.372Z,99376.91
2023-11-01T00:35:10.468Z,99372.10
2023-11-01T00:37:37.883Z,99373.83
2023-11-01T00:40:05.865Z,99368.41
2023-11-01T00:42:33.272Z,99361.99
2023-11-01T00:45:00.509Z,99366.27
2023-11-01T00:47:27.773Z,99361.58
2023-11-01T00:49:55.413Z,99361.54
2023-11-01T00:52:22.656Z,99362.39
2023-11-01T00:54:49.847Z,99363.70
2023-11-01T00:57:17.155Z,99360.50
2023-11-01T00:59:44.533Z,99361.95
2023-11-01T01:02:12.912Z,99358.66
2023-11-01T01:04:40.180Z,99363.37
2023-11-01T01:07:07.442Z,99362.41
2023-11-01T01:09:34.714Z,99365.13
2023-11-01T01:12:02.039Z,99373.14
2023-11-01T01:14:29.310Z,99368.41
2023-11-01T01:16:56.529Z,99371.47
2023-11-01T01:19:23.787Z,99368.82
2023-11-01T01:21:51.007Z,99366.46
2023-11-01T01:24:18.229Z,99370.41
2023-11-01T01:26:45.484Z,99372.34
2023-11-01T01:29:13.514Z,99373.37
2023-11-01T01:31:40.750Z,99376.55
2023-11-01T01:34:08.107Z,99378.98
2023-11-01T01:36:35.391Z,99375.61
2023-11-01T01:39:03.108Z,99370.06
2023-11-01T01:41:30.426Z,99375.36
2023-11-01T01:43:57.780Z,99375.61
2023-11-01T01:46:25.136Z,99373.58
2023-11-01T01:48:52.387Z,99368.84
2023-11-01T01:51:19.671Z,99357.81
2023-11-01T01:53:47.750Z,99356.56
2023-11-01T01:56:16.092Z,99361.97
2023-11-01T01:58:44.352Z,99362.15
2023-11-01T02:01:11.624Z,99361.83
2023-11-01T02:03:39.015Z,99354.83
2023-11-01T02:06:07.091Z,99354.05
2023-11-01T02:08:34.475Z,99350.23
2023-11-01T02:11:01.880Z,99350.82
2023-11-01T02:13:29.629Z,99351.15
2023-11-01T02:15:57.031Z,99353.73
2023-11-01T02:18:24.383Z,99358.94
2023-11-01T02:20:53.458Z,99356.60
2023-11-01T02:23:34.126Z,99348.99
2023-11-01T02:26:02.424Z,99347.03
2023-11-01T02:28:29.850Z,99348.22
2023-11-01T02:30:58.132Z,99346.41
2023-11-01T02:35:11.709Z,99339.85
2023-11-01T02:37:38.953Z,99340.33
2023-11-01T02:40:07.172Z,99336.53
2023-11-01T02:42:34.437Z,99333.03
2023-11-01T02:45:01.666Z,99331.71
2023-11-01T02:47:29.656Z,99335.64
2023-11-01T02:49:56.886Z,99328.74
2023-11-01T02:52:24.200Z,99321.98
2023-11-01T02:54:51.517Z,99325.36
2023-11-01T02:57:18.732Z,99321.67
2023-11-01T02:59:46.010Z,99324.21
2023-11-01T03:02:13.230Z,99325.70
2023-11-01T03:04:40.523Z,99323.05
2023-11-01T03:07:07.875Z,99316.14
2023-11-01T03:09:35.068Z,99313.91
2023-11-01T03:12:03.009Z,99307.20
2023-11-01T03:14:30.769Z,99301.02
2023-11-01T03:16:58.223Z,99297.33
2023-11-01T03:19:25.441Z,99292.04
2023-11-01T03:21:54.149Z,99294.11
2023-11-01T03:24:22.443Z,99291.05
2023-11-01T03:26:49.679Z,99283.41
2023-11-01T03:29:18.164Z,99278.54
2023-11-01T03:31:45.472Z,99277.33
2023-11-01T03:34:12.744Z,99277.83
2023-11-01T03:36:39.947Z,99274.87
2023-11-01T03:39:08.547Z,99281.66
2023-11-01T03:41:42.592Z,99283.08
2023-11-01T03:44:10.296Z,99286.85
2023-11-01T03:46:37.824Z,99287.77
2023-11-01T03:49:05.163Z,99283.37
2023-11-01T03:51:33.096Z,99282.27
2023-11-01T03:54:00.390Z,99283.85
2023-11-01T03:56:27.643Z,99283.25
2023-11-01T03:58:54.899Z,99285.68
2023-11-01T04:01:22.704Z,99280.41
2023-11-01T04:03:50.144Z,99282.90
2023-11-01T04:06:17.704Z,99283.67
2023-11-01T04:08:44.976Z,99287.34
2023-11-01T04:11:12.379Z,99289.64
2023-11-01T04:13:39.665Z,99285.05
2023-11-01T04:16:07.430Z,99288.54
2023-11-01T04:18:36.015Z,99292.88
2023-11-01T04:21:03.425Z,99288.75
2023-11-01T04:23:30.678Z,99283.41
2023-11-01T04:25:57.978Z,99285.42
2023-11-01T04:28:25.193Z,99278.95
2023-11-01T04:30:52.571Z,99278.86
2023-11-01T04:33:19.793Z,99282.31
2023-11-01T04:35:47.065Z,99275.61
2023-11-01T04:38:14.836Z,99276.49
2023-11-01T04:40:42.077Z,99275.25
2023-11-01T04:43:09.300Z,99275.92
2023-11-01T04:45:36.522Z,99283.98
2023-11-01T04:48:04.667Z,99285.05
2023-11-01T04:50:32.697Z,99290.64
2023-11-01T04:53:00.300Z,99297.08
2023-11-01T04:55:27.534Z,99296.54
2023-11-01T04:57:54.768Z,99302.98
2023-11-01T05:00:22.136Z,99306.51
2023-11-01T05:02:49.447Z,99308.84
2023-11-01T05:05:18.381Z,99306.67
2023-11-01T05:07:45.778Z,99316.14
2023-11-01T05:10:13.140Z,99314.11
2023-11-01T05:12:40.371Z,99308.02
2023-11-01T05:15:10.174Z,99313.14
2023-11-01T05:17:37.474Z,99315.70
2023-11-01T05:20:05.763Z,99318.85
2023-11-01T05:22:32.980Z,99324.77
2023-11-01T05:25:00.361Z,99321.59
2023-11-01T05:27:27.767Z,99323.80
2023-11-01T05:29:55.183Z,99325.40
2023-11-01T05:32:22.427Z,99327.20
2023-11-01T05:34:49.766Z,99325.03
2023-11-01T05:37:17.290Z,99321.98
2023-11-01T05:39:44.922Z,99321.02
2023-11-01T05:42:12.670Z,99321.38
2023-11-01T05:44:39.950Z,99322.42
2023-11-01T05:47:07.318Z,99328.49
2023-11-01T05:49:34.717Z,99329.91
2023-11-01T05:52:01.935Z,99331.23
2023-11-01T05:54:29.125Z,99328.36
2023-11-01T05:56:56.379Z,99321.16
2023-11-01T05:59:23.621Z,99323.91
2023-11-01T06:01:54.259Z,99325.46
2023-11-01T06:04:22.395Z,99319.21
2023-11-01T06:06:49.671Z,99324.26
2023-11-01T06:09:20.795Z,99328.62
2023-11-01T06:11:48.235Z,99333.80
2023-11-01T06:14:15.630Z,99346.63
2023-11-01T06:16:43.022Z,99344.25
2023-11-01T06:19:10.682Z,99339.86
2023-11-01T06:21:38.002Z,99338.55
2023-11-01T06:24:05.832Z,99338.70
2023-11-01T06:26:33.444Z,99338.41
2023-11-01T06:29:00.696Z,99340.92
2023-11-01T06:31:27.880Z,99348.39
2023-11-01T06:33:55.196Z,99355.17
2023-11-01T06:36:22.709Z,99351.81
2023-11-01T06:38:49.988Z,99354.73
2023-11-01T06:41:17.419Z,99355.44
2023-11-01T06:43:45.361Z,99355.16
2023-11-01T06:46:12.652Z,99354.77
2023-11-01T06:48:39.938Z,99356.53
2023-11-01T06:51:07.365Z,99361.77
2023-11-01T06:53:34.566Z,99356.63
2023-11-01T06:56:02.038Z,99349.98
2023-11-01T06:58:29.272Z,99352.00
2023-11-01T07:00:56.554Z,99354.00
2023-11-01T07:03:23.897Z,99354.79
2023-11-01T07:05:52.093Z,99353.34
2023-11-01T07:08:19.440Z,99355.02
2023-11-01T07:10:46.848Z,99357.63
2023-11-01T07:13:14.050Z,99355.28
2023-11-01T07:15:41.314Z,99343.27
2023-11-01T07:18:08.665Z,99341.27
2023-11-01T07:20:36.754Z,99347.64
2023-11-01T07:23:04.072Z,99347.05
2023-11-01T07:25:31.403Z,99349.05
2023-11-01T07:27:58.618Z,99347.94
2023-11-01T07:30:25.889Z,99340.91
2023-11-01T07:32:53.960Z,99339.11
2023-11-01T07:35:21.495Z,99339.99
2023-11-01T07:37:48.814Z,99342.27
2023-11-01T07:40:16.058Z,99346.31
2023-11-01T07:42:43.289Z,99340.36
2023-11-01T07:45:10.699Z,99339.42
2023-11-01T07:47:39.771Z,99344.66
2023-11-01T07:50:09.917Z,99345.39
2023-11-01T07:52:38.906Z,99357.40
2023-11-01T07:55:06.970Z,99357.36
2023-11-01T07:57:34.263Z,99356.29
2023-11-01T08:00:01.962Z,99356.84
2023-11-01T08:02:32.386Z,99358.05
2023-11-01T08:05:00.248Z,99364.27
2023-11-01T08:07:27.700Z,99375.79
2023-11-01T08:09:54.942Z,99385.34
2023-11-01T08:12:22.207Z,99389.65
2023-11-01T08:14:49.463Z,99392.94
2023-11-01T08:17:17.407Z,99408.63
2023-11-01T08:19:44.679Z,99419.82
2023-11-01T08:22:13.458Z,99421.84
2023-11-01T08:24:41.283Z,99414.58
2023-11-01T08:27:08.544Z,99420.02
2023-11-01T08:29:36.921Z,99427.71
2023-11-01T08:32:06.766Z,99425.91
2023-11-01T08:34:34.049Z,99425.73
2023-11-01T08:37:01.498Z,99427.60
2023-11-01T08:39:29.042Z,99428.63
2023-11-01T08:41:56.312Z,99431.10
2023-11-01T08:44:23.765Z,99426.78
2023-11-01T08:46:51.205Z,99425.09
2023-11-01T08:49:18.506Z,99423.67
2023-11-01T08:51:45.911Z,99421.11
2023-11-01T08:54:13.248Z,99433.23
2023-11-01T08:56:41.425Z,99438.96
2023-11-01T08:59:08.775Z,99440.04
2023-11-01T09:01:36.040Z,99441.85
2023-11-01T09:04:03.658Z,99449.52
2023-11-01T09:06:33.806Z,99442.31
2023-11-01T09:09:01.291Z,99443.33
2023-11-01T09:11:29.270Z,99444.30
2023-11-01T09:13:56.676Z,99443.80
2023-11-01T09:16:23.916Z,99443.70
2023-11-01T09:18:51.246Z,99439.83
2023-11-01T09:21:20.556Z,99435.31
2023-11-01T09:23:47.979Z,99429.65
2023-11-01T09:26:16.855Z,99433.05
2023-11-01T09:28:44.467Z,99440.59
2023-11-01T09:31:11.873Z,99435.16
2023-11-01T09:33:39.536Z,99436.07
2023-11-01T09:36:09.104Z,99431.33
2023-11-01T09:38:36.416Z,99423.30
2023-11-01T09:41:04.046Z,99424.29
2023-11-01T09:43:31.332Z,99419.77
2023-11-01T09:45:58.565Z,99419.06
2023-11-01T09:48:25.942Z,99416.89
2023-11-01T09:50:53.984Z,99415.66
2023-11-01T09:53:21.286Z,99411.95
2023-11-01T09:55:48.526Z,99409.08
2023-11-01T09:58:18.478Z,99406.79
2023-11-01T10:00:46.726Z,99402.98
2023-11-01T10:03:15.207Z,99405.55
2023-11-01T10:05:42.656Z,99398.42
2023-11-01T10:08:09.894Z,99398.83
2023-11-01T10:10:37.210Z,99400.23
2023-11-01T10:13:04.531Z,99399.27
2023-11-01T10:15:32.444Z,99399.73
2023-11-01T10:17:59.792Z,99398.64
2023-11-01T10:20:30.955Z,99398.15
2023-11-01T10:22:58.841Z,99398.54
2023-11-01T10:25:26.872Z,99400.13
2023-11-01T10:27:55.426Z,99399.53
2023-11-01T10:30:22.690Z,99398.33
2023-11-01T10:32:57.732Z,99396.64
2023-11-01T10:35:25.398Z,99396.54
2023-11-01T10:37:57.517Z,99397.03
2023-11-01T10:40:25.003Z,99397.45
2023-11-01T10:42:56.420Z,99395.09
2023-11-01T10:45:25.428Z,99395.50
2023-11-01T10:47:53.296Z,99391.34
2023-11-01T10:50:21.368Z,99391.23
2023-11-01T10:52:49.217Z,99389.15
2023-11-01T10:55:20.570Z,99393.16
2023-11-01T10:57:49.067Z,99393.36
2023-11-01T11:00:25.549Z,99399.67
2023-11-01T11:03:02.233Z,99403.52
2023-11-01T11:05:30.757Z,99406.31
2023-11-01T11:07:58.577Z,99407.98
2023-11-01T11:10:35.937Z,99411.45
2023-11-01T11:13:09.362Z,99416.06
2023-11-01T11:15:49.344Z,99419.28
2023-11-01T11:18:22.091Z,99420.02
2023-11-01T11:20:50.935Z,99422.31
2023-11-01T11:23:19.083Z,99423.99
2023-11-01T11:25:50.790Z,99423.86
2023-11-01T11:28:25.760Z,99419.45
2023-11-01T11:31:07.153Z,99424.09
2023-11-01T11:33:35.060Z,99425.13
2023-11-01T11:36:18.682Z,99420.92
2023-11-01T11:38:52.078Z,99421.27
2023-11-01T11:41:26.864Z,99420.76
2023-11-01T11:44:00.881Z,99421.02
2023-11-01T11:46:33.101Z,99420.62
2023-11-01T11:49:00.735Z,99417.36
2023-11-01T11:51:29.026Z,99418.90
2023-11-01T11:53:57.165Z,99420.73
2023-11-01T11:56:24.884Z,99417.57
2023-11-01T11:58:52.361Z,99418.91
2023-11-01T12:01:29.133Z,99419.64
2023-11-01T12:03:59.951Z,99415.79
2023-11-01T12:06:46.779Z,99416.33
2023-11-01T12:09:17.752Z,99413.29
2023-11-01T12:11:49.086Z,99410.25
2023-11-01T12:14:26.563Z,99411.49
2023-11-01T12:16:55.336Z,99407.59
2023-11-01T12:19:25.981Z,99404.81
2023-11-01T12:22:02.842Z,99407.34
2023-11-01T12:24:39.114Z,99408.85
2023-11-01T12:27:07.785Z,99415.67
2023-11-01T12:29:48.173Z,99429.77
2023-11-01T12:32:15.722Z,99433.06
2023-11-01T12:34:49.320Z,99436.99
2023-11-01T12:37:30.032Z,99441.62
2023-11-01T12:40:13.837Z,99447.45
2023-11-01T12:42:50.559Z,99450.27
2023-11-01T12:45:19.166Z,99449.15
2023-11-01T12:47:48.292Z,99454.30
2023-11-01T12:50:21.869Z,99458.96
2023-11-01T12:52:49.843Z,99467.49
2023-11-01T12:55:17.961Z,99470.75
2023-11-01T12:57:53.039Z,99467.64
2023-11-01T13:00:20.990Z,99471.89
2023-11-01T13:02:48.632Z,99476.55
2023-11-01T13:05:16.725Z,99482.17
2023-11-01T13:07:47.118Z,99486.40
2023-11-01T13:10:16.272Z,99491.46
2023-11-01T13:12:49.270Z,99495.59
2023-11-01T13:15:17.158Z,99495.39
2023-11-01T13:17:45.340Z,99494.73
2023-11-01T13:20:12.872Z,99497.74
2023-11-01T13:22:40.114Z,99499.73
2023-11-01T13:25:08.330Z,99503.73
2023-11-01T13:27:35.679Z,99505.95
2023-11-01T13:30:03.324Z,99505.00
2023-11-01T13:32:30.769Z,99508.66
2023-11-01T13:34:58.053Z,99511.98
2023-11-01T13:37:25.470Z,99512.11
2023-11-01T13:39:52.717Z,99508.70
2023-11-01T13:42:19.957Z,99504.31
2023-11-01T13:44:47.237Z,99509.77
2023-11-01T13:47:14.646Z,99514.52
2023-11-01T13:49:43.100Z,99511.51
2023-11-01T13:52:12.614Z,99514.80
2023-11-01T13:54:40.685Z,99517.34
2023-11-01T13:57:08.906Z,99518.02
2023-11-01T13:59:36.501Z,99530.86
2023-11-01T14:02:04.330Z,99530.25
2023-11-01T14:04:32.988Z,99527.65
2023-11-01T14:07:00.535Z,99525.30
2023-11-01T14:09:27.932Z,99526.01
2023-11-01T14:11:55.400Z,99524.20
2023-11-01T14:14:24.283Z,99521.35
2023-11-01T14:16:52.449Z,99524.23
2023-11-01T14:19:19.953Z,99522.45
2023-11-01T14:21:47.571Z,99522.54
2023-11-01T14:24:18.306Z,99523.33
2023-11-01T14:26:47.027Z,99520.38
2023-11-01T14:29:14.459Z,99522.95
2023-11-01T14:31:41.902Z,99529.01
2023-11-01T14:34:09.261Z,99532.56
2023-11-01T14:36:36.715Z,99534.96
2023-11-01T14:39:04.245Z,99531.77
2023-11-01T14:41:32.095Z,99531.81
2023-11-01T14:44:00.965Z,99529.22
2023-11-01T14:46:28.998Z,99525.86
2023-11-01T14:48:56.855Z,99531.75
2023-11-01T14:53:18.782Z,99537.88
2023-11-01T14:55:46.037Z,99539.50
2023-11-01T14:58:13.363Z,99543.59
2023-11-01T15:00:43.140Z,99544.72
2023-11-01T15:03:10.688Z,99541.18
2023-11-01T15:05:38.041Z,99541.60
2023-11-01T15:08:05.609Z,99549.06
2023-11-01T15:10:32.953Z,99548.39
2023-11-01T15:13:00.216Z,99551.04
2023-11-01T15:15:27.489Z,99546.92
2023-11-01T15:17:55.425Z,99546.05
2023-11-01T15:20:22.729Z,99547.19
2023-11-01T15:22:50.101Z,99547.51
2023-11-01T15:25:17.813Z,99550.52
2023-11-01T15:27:45.472Z,99548.83
2023-11-01T15:30:15.772Z,99551.95
2023-11-01T15:32:43.418Z,99548.44
2023-11-01T15:35:10.853Z,99544.00
2023-11-01T15:37:38.231Z,99545.38
2023-11-01T15:40:07.479Z,99543.35
2023-11-01T15:42:34.766Z,99541.15
2023-11-01T15:45:02.057Z,99538.55
2023-11-01T15:47:29.441Z,99542.05
2023-11-01T15:49:56.981Z,99539.23
2023-11-01T15:52:24.202Z,99537.42
2023-11-01T15:54:52.435Z,99536.97
2023-11-01T15:57:21.901Z,99536.61
2023-11-01T15:59:50.244Z,99539.89
2023-11-01T16:02:17.710Z,99553.83
2023-11-01T16:04:45.131Z,99556.20
2023-11-01T16:07:12.669Z,99555.27
2023-11-01T16:09:41.975Z,99553.08
2023-11-01T16:12:09.725Z,99550.08
2023-11-01T16:14:37.086Z,99556.98
2023-11-01T16:17:07.611Z,99563.66
2023-11-01T16:19:34.913Z,99567.73
2023-11-01T16:22:03.362Z,99570.89
2023-11-01T16:24:30.640Z,99575.59
2023-11-01T16:26:58.390Z,99575.83
2023-11-01T16:29:25.901Z,99578.47
2023-11-01T16:31:53.161Z,99578.64
2023-11-01T16:34:20.818Z,99580.34
2023-11-01T16:36:48.112Z,99583.30
2023-11-01T16:39:15.472Z,99579.84
2023-11-01T16:41:43.845Z,99579.66
2023-11-01T16:44:11.576Z,99577.68
2023-11-01T16:46:40.498Z,99578.39
2023-11-01T16:49:08.077Z,99579.06
2023-11-01T16:51:35.936Z,99577.54
2023-11-01T16:54:03.821Z,99582.27
2023-11-01T16:56:31.184Z,99587.13
2023-11-01T16:58:58.546Z,99591.01
2023-11-01T17:01:27.171Z,99589.88
2023-11-01T17:03:54.975Z,99589.14
2023-11-01T17:06:22.534Z,99586.34
2023-11-01T17:08:49.860Z,99582.89
2023-11-01T17:11:17.135Z,99580.45
2023-11-01T17:13:44.761Z,99578.98
2023-11-01T17:16:12.179Z,99579.92
2023-11-01T17:18:39.877Z,99584.54
2023-11-01T17:21:07.367Z,99589.00
2023-11-01T17:23:34.927Z,99587.61
2023-11-01T17:26:02.282Z,99584.62
2023-11-01T17:28:36.497Z,99589.46
2023-11-01T17:31:09.931Z,99591.54
2023-11-01T17:33:38.607Z,99596.36
2023-11-01T17:36:08.385Z,99598.60
2023-11-01T17:38:38.207Z,99596.80
2023-11-01T17:41:08.404Z,99598.23
2023-11-01T17:43:40.009Z,99602.15
2023-11-01T17:52:45.062Z,99606.12
2023-11-01T17:55:15.476Z,99605.27
2023-11-01T17:57:43.151Z,99610.67
2023-11-01T18:00:11.403Z,99614.23
2023-11-01T18:02:44.894Z,99614.21
2023-11-01T18:05:30.619Z,99617.67
2023-11-01T18:07:57.915Z,99621.00
2023-11-01T18:10:25.168Z,99623.36
2023-11-01T18:12:52.370Z,99627.21
2023-11-01T18:15:21.250Z,99629.46
2023-11-01T18:17:48.588Z,99632.24
2023-11-01T18:20:16.380Z,99629.64
2023-11-01T18:22:44.773Z,99630.88
2023-11-01T18:25:59.213Z,99638.23
2023-11-01T18:28:27.845Z,99648.63
2023-11-01T18:30:57.583Z,99651.66
2023-11-01T18:33:24.885Z,99654.28
2023-11-01T18:35:52.238Z,99658.68
2023-11-01T18:38:45.189Z,99660.84
2023-11-01T18:41:12.545Z,99665.27
2023-11-01T18:43:39.795Z,99670.27
2023-11-01T18:46:07.134Z,99672.55
2023-11-01T18:48:35.046Z,99672.66
2023-11-01T18:51:09.177Z,99673.70
2023-11-01T18:53:43.757Z,99677.13
2023-11-01T18:56:11.091Z,99678.27
2023-11-01T18:58:39.743Z,99674.20
2023-11-01T19:01:07.121Z,99678.04
2023-11-01T19:03:34.736Z,99678.92
2023-11-01T19:06:02.332Z,99680.55
2023-11-01T19:08:29.745Z,99681.45
2023-11-01T19:10:57.049Z,99677.90
2023-11-01T19:13:24.783Z,99677.26
2023-11-01T19:16:09.588Z,99680.23
2023-11-01T19:18:37.656Z,99682.02
2023-11-01T19:21:05.378Z,99683.19
2023-11-01T19:23:33.433Z,99686.54
2023-11-01T19:26:00.762Z,99689.52
2023-11-01T19:28:28.017Z,99688.98
2023-11-01T19:30:55.256Z,99688.59
2023-11-01T19:33:29.430Z,99688.35
2023-11-01T19:36:07.897Z,99688.05
2023-11-01T19:38:44.369Z,99692.52
2023-11-01T19:41:12.011Z,99695.95
2023-11-01T19:43:39.376Z,99695.20
2023-11-01T19:46:06.716Z,99693.36
2023-11-01T19:48:34.109Z,99693.89
2023-11-01T19:51:03.714Z,99691.36
2023-11-01T19:53:31.231Z,99690.79
2023-11-01T19:55:58.537Z,99691.84
2023-11-01T19:58:25.826Z,99692.97
2023-11-01T20:00:53.093Z,99691.83
2023-11-01T20:03:20.453Z,99695.41
2023-11-01T20:05:47.813Z,99694.28
2023-11-01T20:08:15.172Z,99694.86
2023-11-01T20:10:42.403Z,99695.41
2023-11-01T20:13:09.689Z,99698.61
2023-11-01T20:15:37.000Z,99699.50
2023-11-01T20:18:05.235Z,99700.49
2023-11-01T20:20:32.829Z,99700.90
2023-11-01T20:23:00.113Z,99701.90
2023-11-01T20:25:28.164Z,99702.42
2023-11-01T20:27:55.487Z,99698.55
2023-11-01T20:30:22.871Z,99702.73
2023-11-01T20:32:50.238Z,99703.70
2023-11-01T20:35:17.635Z,99702.55
2023-11-01T20:37:44.910Z,99696.48
2023-11-01T20:40:12.862Z,99695.19
2023-11-01T20:42:42.000Z,99693.30
2023-11-01T20:45:10.208Z,99698.64
2023-11-01T20:47:37.587Z,99697.38
2023-11-01T20:50:07.680Z,99699.80
2023-11-01T20:52:35.368Z,99695.98
2023-11-01T20:55:06.299Z,99696.05
2023-11-01T20:57:34.007Z,99695.61
2023-11-01T21:00:02.295Z,99692.52
2023-11-01T21:02:30.743Z,99692.33
2023-11-01T21:04:58.949Z,99690.23
2023-11-01T21:07:32.788Z,99693.95
2023-11-01T21:10:00.697Z,99698.39
2023-11-01T21:12:28.097Z,99702.95
2023-11-01T21:14:55.412Z,99699.40
2023-11-01T21:17:23.648Z,99702.59
2023-11-01T21:19:52.209Z,99701.28
2023-11-01T21:22:19.730Z,99705.38
2023-11-01T21:24:47.001Z,99707.56
2023-11-01T21:27:14.409Z,99708.17
2023-11-01T21:29:42.192Z,99709.27
2023-11-01T21:32:09.434Z,99714.77
2023-11-01T21:34:37.271Z,99714.36
2023-11-01T21:37:05.522Z,99719.16
2023-11-01T21:39:33.764Z,99722.33
2023-11-01T21:42:02.027Z,99728.69
2023-11-01T21:44:37.016Z,99729.74
2023-11-01T21:47:12.716Z,99727.24
2023-11-01T21:49:40.344Z,99725.07
2023-11-01T21:55:51.110Z,99725.73
2023-11-01T21:58:25.558Z,99719.40
2023-11-01T22:01:01.265Z,99718.59
2023-11-01T22:03:39.210Z,99720.65
2023-11-01T22:06:32.240Z,99722.50
2023-11-01T22:09:05.900Z,99723.73
2023-11-01T22:11:36.799Z,99725.84
2023-11-01T22:14:08.722Z,99726.52
2023-11-01T22:16:36.223Z,99723.88
2023-11-01T22:19:32.859Z,99725.81
2023-11-01T22:22:09.074Z,99726.69
2023-11-01T22:24:40.635Z,99722.80
2023-11-01T22:27:12.276Z,99726.13
2023-11-01T22:29:50.136Z,99724.88
2023-11-01T22:32:21.849Z,99726.55
2023-11-01T22:34:49.749Z,99725.34
2023-11-01T22:37:20.157Z,99726.98
2023-11-01T22:39:47.678Z,99728.91
2023-11-01T22:42:18.880Z,99730.65
2023-11-01T22:44:46.495Z,99732.83
2023-11-01T22:47:14.364Z,99735.13
2023-11-01T22:49:42.108Z,99737.81
2023-11-01T22:52:09.396Z,99743.01
2023-11-01T22:54:36.740Z,99741.81
2023-11-01T22:57:04.627Z,99742.63
2023-11-01T22:59:32.044Z,99744.33
2023-11-01T23:01:59.246Z,99740.46
2023-11-01T23:04:26.573Z,99739.26
2023-11-01T23:06:53.929Z,99737.81
2023-11-01T23:09:21.502Z,99738.80
2023-11-01T23:11:48.864Z,99739.96
2023-11-01T23:14:16.131Z,99738.95
2023-11-01T23:16:43.499Z,99744.25
2023-11-01T23:19:11.923Z,99743.16
2023-11-01T23:21:39.865Z,99748.48
2023-11-01T23:24:12.146Z,99745.08
2023-11-01T23:26:55.903Z,99748.45
2023-11-01T23:29:33.554Z,99748.61
2023-11-01T23:32:09.220Z,99749.98
2023-11-01T23:34:46.809Z,99752.81
2023-11-01T23:37:18.183Z,99753.30
2023-11-01T23:39:45.858Z,99756.27
2023-11-01T23:42:14.182Z,99759.27
2023-11-01T23:44:41.697Z,99761.90
2023-11-01T23:47:09.760Z,99766.65
2023-11-01T23:52:39.711Z,99770.45
2023-11-01T23:55:08.397Z,99772.81
2023-11-01T23:57:35.902Z,99773.68
